Flight Track Log - Related Links

Times and Time Zones

All times are in EDT time to prevent confusion due to time zone crossing. See the USC105 flight status page for this flight to view local times or setup timezone preferences in your user account.


Time Position Orientation Groundspeed Altitude Reporting Facility
EDT Latitude Longitude Course Direction KTS MPH feet Rate Location/Type
Wed 05:53:25 AM 41.8667 -88.2167 153° Southeast 100 115 3,700  Level Chicago TRACON
Wed 05:54:26 AM 41.8500 -88.1833 124° Southeast 150 173 4,600 744 Climbing Chicago TRACON
Wed 05:55:26 AM 41.8667 -88.1167 71° East 180 207 5,200 600 Climbing Chicago TRACON
Wed 05:56:26 AM 41.8667 -88.0500 90° East 183 211 5,800 650 Climbing Chicago TRACON
Wed 05:57:26 AM 41.8667 -87.9833 90° East 184 212 6,500 600 Climbing Chicago TRACON
Wed 05:58:00 AM 41.9468 -87.8029 153° Southeast  Level Estimated
Wed 05:58:26 AM 41.8833 -87.9167 71° East 197 227 7,000  Level Chicago TRACON
Wed 05:59:32 AM 41.8833 -87.8333 90° East 221 254 7,100 50 Climbing Chicago TRACON
Wed 06:00:26 AM 41.9000 -87.7500 75° East 224 258 7,100 -53 Level Chicago TRACON
Wed 06:01:26 AM 41.9000 -87.6667 90° East 221 254 7,000 -48 Descending Chicago TRACON
Wed 06:02:32 AM 41.9167 -87.5833 75° East 222 255 7,000  Level Chicago TRACON
Wed 06:03:32 AM 41.9167 -87.5000 90° East 220 253 7,000  Level Chicago TRACON
Wed 06:04:27 AM 41.9333 -87.4333 71° East 219 252 7,000  Level Chicago TRACON
Wed 06:05:27 AM 41.9333 -87.3500 90° East 216 249 7,000  Level Chicago TRACON
Wed 06:06:19 AM 41.9425 -87.2819 80° East 219 252 7,000  Level Chicago Center
Wed 06:07:20 AM 41.9506 -87.2025 82° East 217 250 7,000  Level Chicago Center
Wed 06:08:20 AM 41.9575 -87.1231 83° East 215 247 7,000 -50 Level Chicago Center
Wed 06:09:21 AM 41.9653 -87.0442 82° East 215 247 6,900 -50 Descending Chicago Center
Wed 06:10:21 AM 41.9725 -86.9658 83° East 213 245 6,900  Level Chicago Center
Wed 06:11:22 AM 41.9797 -86.8867 83° East 215 247 6,900  Level Chicago Center
Wed 06:12:22 AM 41.9864 -86.8081 83° East 214 246 6,900  Level Chicago Center
Wed 06:13:22 AM 41.9953 -86.7303 81° East 213 245 6,900  Level Chicago Center
Wed 06:14:23 AM 42.0017 -86.6539 84° East 217 250 6,900  Level Chicago Center
Wed 06:15:23 AM 42.0081 -86.5750 84° East 214 246 6,900  Level Chicago Center
Wed 06:16:24 AM 42.0167 -86.4797 83° East 215 247 6,900  Level Chicago Center
Wed 06:17:24 AM 42.0239 -86.4003 83° East 215 247 6,900  Level Chicago Center
Wed 06:18:25 AM 42.0314 -86.3189 83° East 218 251 6,900  Level Chicago Center
Wed 06:19:25 AM 42.0375 -86.2381 84° East 218 251 6,900  Level Chicago Center
Wed 06:20:26 AM 42.0447 -86.1572 83° East 217 250 6,900  Level Chicago Center
Wed 06:21:26 AM 42.0525 -86.0764 83° East 218 251 6,900  Level Chicago Center
Wed 06:22:27 AM 42.0583 -85.9947 84° East 219 252 6,900  Level Chicago Center
Wed 06:23:27 AM 42.0658 -85.9136 83° East 219 252 6,900  Level Chicago Center
Wed 06:24:28 AM 42.0719 -85.8325 84° East 219 252 6,900  Level Chicago Center
Wed 06:25:28 AM 42.0792 -85.7511 83° East 219 252 6,900  Level Chicago Center
Wed 06:26:29 AM 42.0864 -85.6675 83° East 222 255 6,900  Level Chicago Center
Wed 06:27:29 AM 42.0928 -85.5847 84° East 222 255 6,900  Level Chicago Center
Wed 06:28:30 AM 42.0989 -85.5017 84° East 223 257 6,900  Level Chicago Center
Wed 06:29:30 AM 42.1058 -85.4183 84° East 224 258 6,900  Level Chicago Center
Wed 06:30:30 AM 42.1125 -85.3344 84° East 225 259 6,900  Level Chicago Center
Wed 06:31:31 AM 42.1194 -85.2503 84° East 225 259 6,900  Level Chicago Center
Wed 06:32:31 AM 42.1261 -85.1661 84° East 226 260 6,900  Level Chicago Center
Wed 06:33:32 AM 42.1333 -85.0814 83° East 227 261 6,900 -49 Level Chicago Center
Wed 06:34:33 AM 42.1386 -84.9964 85° East 227 261 6,800 -50 Descending Chicago Center
Wed 06:35:33 AM 42.1453 -84.9103 84° East 229 264 6,800  Level Chicago Center
Wed 06:36:34 AM 42.1517 -84.8256 84° East 229 264 6,800  Level Chicago Center
Wed 06:37:34 AM 42.1581 -84.7406 84° East 228 262 6,800  Level Chicago Center
Wed 06:38:35 AM 42.1644 -84.6547 84° East 229 264 6,800  Level Chicago Center
Wed 06:39:35 AM 42.1708 -84.5681 84° East 231 266 6,800 -347 Level Chicago Center
Wed 06:40:36 AM 42.1761 -84.4742 86° East 237 273 6,100 -545 Descending Chicago Center
Wed 06:41:36 AM 42.1833 -84.3814 84° East 246 283 5,700 -545 Descending Chicago Center
Wed 06:42:37 AM 42.1908 -84.2919 84° East 249 287 5,000 -446 Descending Chicago Center
Wed 06:43:37 AM 42.1972 -84.2022 84° East 246 283 4,800 -47 Descending Chicago Center
Wed 06:44:46 AM 42.2044 -84.0928 85° East 230 265 4,900 46 Climbing Cleveland Center
Wed 06:45:47 AM 42.2047 -84.0089 90° East 221 254 4,900  Level Cleveland Center
Wed 06:46:47 AM 42.1906 -83.9239 103° East 218 251 4,900 -52 Level Cleveland Center
Wed 06:47:42 AM 42.1781 -83.8589 105° East 215 247 4,800 -569 Descending Cleveland Center
Wed 06:48:43 AM 42.1447 -83.7842 121° Southeast 221 254 3,800 -898 Descending Cleveland Center
Wed 06:49:49 AM 42.1219 -83.7019 110° East 215 247 2,900 -614 Descending Cleveland Center
Wed 06:50:50 AM 42.1631 -83.6422 47° Northeast 181 208 2,500 -393 Descending Cleveland Center
Wed 06:51:51 AM 42.1892 -83.6014 49° Northeast 150 173 2,100 -626 Descending Cleveland Center
Wed 06:52:45 AM 42.2150 -83.5664 45° Northeast 119 137 1,300 -889 Descending Cleveland Center
Wed 06:54:00 AM 42.2333 -83.5167 86° East  Level FlightAware Approximate
Wed 07:01:00 AM 42.2393 -83.5310 86° East  Level Estimated
Wed 07:02:00 AM 42.2393 -83.5310 86° East  Level Estimated

Login

Don't have an account? Register now (free) for customized features, flight alerts, and more!